createdAt,value
2018-11-07T00:00:25.295Z,49.90
2018-11-07T00:05:29.958Z,50.27
2018-11-07T00:10:34.507Z,49.20
2018-11-07T00:15:39.876Z,47.53
2018-11-07T00:20:45.002Z,47.80
2018-11-07T00:25:55.252Z,49.23
2018-11-07T00:30:59.850Z,44.60
2018-11-07T00:36:10.328Z,44.23
2018-11-07T00:41:15.274Z,49.50
2018-11-07T00:46:19.764Z,49.93
2018-11-07T00:51:24.645Z,49.70
2018-11-07T00:56:34.244Z,49.93
2018-11-07T01:01:39.063Z,49.33
2018-11-07T01:06:44.079Z,47.17
2018-11-07T01:11:48.538Z,46.13
2018-11-07T01:16:53.169Z,49.10
2018-11-07T01:21:57.695Z,46.40
2018-11-07T01:27:03.460Z,44.40
2018-11-07T01:32:08.068Z,45.87
2018-11-07T01:37:12.698Z,44.53
2018-11-07T01:42:19.342Z,40.23
2018-11-07T01:47:24.036Z,41.60
2018-11-07T01:52:31.167Z,38.43
2018-11-07T01:57:40.666Z,40.27
2018-11-07T02:02:45.267Z,39.73
2018-11-07T02:07:59.108Z,41.20
2018-11-07T02:13:03.609Z,39.30
2018-11-07T02:18:08.853Z,40.93
2018-11-07T02:23:13.378Z,38.07
2018-11-07T02:28:18.066Z,38.37
2018-11-07T02:33:22.822Z,40.57
2018-11-07T02:38:27.133Z,44.60
2018-11-07T02:43:31.603Z,38.53
2018-11-07T02:48:37.232Z,36.70
2018-11-07T02:53:41.880Z,40.00
2018-11-07T02:58:46.342Z,40.03
2018-11-07T03:04:13.146Z,41.07
2018-11-07T03:09:17.586Z,39.83
2018-11-07T03:14:31.408Z,38.53
2018-11-07T03:19:35.686Z,38.13
2018-11-07T03:24:40.024Z,40.40
2018-11-07T03:29:44.608Z,41.20
2018-11-07T03:34:49.144Z,40.93
2018-11-07T03:39:53.803Z,41.63
2018-11-07T03:45:04.164Z,40.97
2018-11-07T03:50:09.188Z,42.83
2018-11-07T03:55:19.215Z,44.07
2018-11-07T04:00:23.985Z,41.53
2018-11-07T04:05:28.479Z,41.73
2018-11-07T04:10:34.105Z,44.77
2018-11-07T04:15:38.714Z,45.43
2018-11-07T04:20:44.993Z,43.80
2018-11-07T04:25:49.762Z,40.60
2018-11-07T04:30:54.423Z,43.43
2018-11-07T04:35:58.886Z,43.50
2018-11-07T04:41:03.698Z,47.97
2018-11-07T04:46:08.498Z,45.17
2018-11-07T04:51:13.132Z,42.03
2018-11-07T04:56:17.667Z,46.30
2018-11-07T05:01:22.222Z,47.33
2018-11-07T05:06:26.925Z,44.30
2018-11-07T05:11:31.421Z,44.87
2018-11-07T05:16:41.361Z,48.00
2018-11-07T05:21:46.250Z,47.63
2018-11-07T05:26:55.952Z,45.97
2018-11-07T05:32:00.573Z,48.77
2018-11-07T05:37:05.289Z,50.03
2018-11-07T05:42:09.897Z,44.43
2018-11-07T05:47:14.441Z,45.53
2018-11-07T05:52:18.984Z,43.00
2018-11-07T05:57:28.598Z,49.33
2018-11-07T06:02:33.133Z,44.33
2018-11-07T06:07:38.208Z,45.10
2018-11-07T06:12:43.272Z,45.47
2018-11-07T06:17:49.845Z,46.77
2018-11-07T06:22:54.653Z,43.77
2018-11-07T06:27:59.881Z,47.93
2018-11-07T06:33:04.570Z,50.17
2018-11-07T06:38:09.186Z,42.90
2018-11-07T06:43:13.746Z,46.13
2018-11-07T06:48:18.319Z,47.17
2018-11-07T06:53:23.158Z,44.03
2018-11-07T06:58:27.608Z,46.20
2018-11-07T07:03:33.126Z,47.10
2018-11-07T07:08:38.246Z,48.20
2018-11-07T07:13:43.070Z,49.00
2018-11-07T07:18:47.640Z,50.53
2018-11-07T07:23:52.273Z,44.57
2018-11-07T07:28:57.467Z,45.73
2018-11-07T07:34:02.659Z,45.70
2018-11-07T07:39:09.940Z,45.37
2018-11-07T07:44:14.305Z,47.73
2018-11-07T07:49:19.591Z,45.37
2018-11-07T07:54:24.234Z,47.20
2018-11-07T07:59:28.821Z,49.07
2018-11-07T08:04:38.248Z,45.43
2018-11-07T08:09:42.842Z,47.63
2018-11-07T08:14:48.495Z,46.17
2018-11-07T08:19:53.228Z,45.30
2018-11-07T08:24:57.778Z,50.67
2018-11-07T08:30:02.382Z,46.07
2018-11-07T08:35:07.739Z,51.70
2018-11-07T08:40:18.067Z,48.40
2018-11-07T08:45:28.464Z,47.07
2018-11-07T08:50:32.969Z,46.00
2018-11-07T08:55:37.685Z,46.73
2018-11-07T09:00:42.488Z,46.27
2018-11-07T09:05:48.573Z,45.40
2018-11-07T09:10:53.318Z,44.60
2018-11-07T09:15:57.727Z,42.13
2018-11-07T09:21:02.703Z,43.03
2018-11-07T09:26:07.474Z,40.43
2018-11-07T09:31:12.109Z,39.43
2018-11-07T09:36:21.654Z,41.60
2018-11-07T09:41:26.523Z,40.57
2018-11-07T09:46:30.961Z,38.90
2018-11-07T09:51:35.680Z,42.17
2018-11-07T09:56:40.228Z,38.87
2018-11-07T10:01:45.104Z,43.43
2018-11-07T10:06:49.746Z,43.37
2018-11-07T10:11:54.173Z,37.50
2018-11-07T10:17:12.183Z,38.83
2018-11-07T10:22:17.916Z,38.27
2018-11-07T10:27:23.803Z,36.73
2018-11-07T10:32:31.164Z,36.50
2018-11-07T10:37:49.938Z,35.23
2018-11-07T10:42:54.243Z,32.77
2018-11-07T10:47:59.087Z,32.10
2018-11-07T10:53:04.457Z,30.37
2018-11-07T10:58:14.353Z,32.23
2018-11-07T11:03:23.857Z,33.17
2018-11-07T11:08:28.916Z,29.47
2018-11-07T11:13:33.831Z,30.07
2018-11-07T11:18:38.322Z,29.60
2018-11-07T11:23:42.791Z,29.00
2018-11-07T11:28:47.504Z,26.60
2018-11-07T11:33:51.982Z,24.00
2018-11-07T11:38:56.382Z,26.17
2018-11-07T11:44:00.870Z,23.33
2018-11-07T11:49:05.800Z,21.60
2018-11-07T11:54:10.413Z,23.40
2018-11-07T11:59:14.978Z,24.03
2018-11-07T12:04:19.502Z,23.30
2018-11-07T12:09:23.952Z,25.07
2018-11-07T12:14:41.955Z,24.33
2018-11-07T12:19:46.448Z,19.67
2018-11-07T12:24:51.234Z,20.80
2018-11-07T12:29:55.464Z,22.57
2018-11-07T12:35:00.043Z,19.50
2018-11-07T12:40:05.022Z,20.50
2018-11-07T12:45:10.461Z,22.23
2018-11-07T12:50:23.716Z,20.37
2018-11-07T12:55:34.518Z,18.13
2018-11-07T13:00:39.625Z,19.53
2018-11-07T13:05:44.426Z,18.83
2018-11-07T13:10:49.000Z,16.93
2018-11-07T13:15:53.957Z,16.77
2018-11-07T13:20:58.783Z,17.02
2018-11-07T13:26:03.374Z,16.82
2018-11-07T13:31:08.365Z,17.93
2018-11-07T13:36:13.064Z,18.90
2018-11-07T13:41:17.935Z,18.48
2018-11-07T13:46:23.660Z,19.20
2018-11-07T13:51:28.940Z,22.17
2018-11-07T13:56:33.474Z,28.00
2018-11-07T14:01:38.049Z,27.17
2018-11-07T14:06:43.031Z,28.87
2018-11-07T14:11:47.989Z,26.87
2018-11-07T14:16:59.018Z,26.73
2018-11-07T14:22:04.482Z,24.83
2018-11-07T14:27:11.684Z,21.73
2018-11-07T14:32:16.255Z,27.30
2018-11-07T14:37:20.730Z,26.87
2018-11-07T14:42:25.621Z,24.73
2018-11-07T14:47:35.085Z,24.87
2018-11-07T14:52:39.671Z,24.07
2018-11-07T14:57:44.887Z,24.63
2018-11-07T15:02:49.928Z,26.80
2018-11-07T15:07:55.842Z,21.13
2018-11-07T15:13:00.970Z,25.93
2018-11-07T15:18:05.943Z,24.63
2018-11-07T15:23:10.657Z,27.87
2018-11-07T15:33:37.534Z,27.73
2018-11-07T15:38:42.553Z,29.30
2018-11-07T15:43:47.212Z,28.10
2018-11-07T15:48:51.937Z,27.57
2018-11-07T15:53:56.573Z,33.75
2018-11-07T15:59:01.466Z,35.40
2018-11-07T16:04:09.616Z,31.68
2018-11-07T16:09:15.942Z,29.02
2018-11-07T16:14:22.343Z,31.05
2018-11-07T16:19:27.017Z,31.42
2018-11-07T16:24:31.764Z,34.63
2018-11-07T16:29:38.682Z,38.00
2018-11-07T16:34:46.990Z,35.45
2018-11-07T16:40:14.097Z,33.73
2018-11-07T16:45:25.681Z,32.80
2018-11-07T16:50:31.502Z,34.07
2018-11-07T16:55:45.483Z,33.23
2018-11-07T17:00:56.834Z,32.23
2018-11-07T17:06:08.561Z,33.90
2018-11-07T17:11:25.201Z,35.05
2018-11-07T17:16:42.929Z,36.55
2018-11-07T17:27:39.518Z,34.20
2018-11-07T17:32:59.149Z,35.15
2018-11-07T17:44:10.953Z,34.80
2018-11-07T17:54:55.327Z,40.30
2018-11-07T18:00:33.985Z,37.90
2018-11-07T18:16:53.724Z,38.87
2018-11-07T18:22:06.752Z,38.33
2018-11-07T18:27:22.723Z,40.80
2018-11-07T18:32:45.662Z,37.65
2018-11-07T18:38:30.502Z,44.50
2018-11-07T18:43:51.721Z,41.45
2018-11-07T18:49:10.524Z,40.90
2018-11-07T18:54:22.019Z,39.80
2018-11-07T18:59:29.864Z,38.13
2018-11-07T19:04:35.052Z,37.67
2018-11-07T19:09:41.190Z,39.10
2018-11-07T19:20:23.593Z,40.90
2018-11-07T19:25:48.764Z,41.63
2018-11-07T19:30:55.186Z,43.23
2018-11-07T19:36:07.699Z,42.33
2018-11-07T19:41:17.018Z,39.58
2018-11-07T19:46:30.451Z,40.28
2018-11-07T19:51:38.912Z,38.40
2018-11-07T19:56:44.962Z,39.23
2018-11-07T20:01:51.364Z,43.83
2018-11-07T20:07:08.930Z,41.83
2018-11-07T20:12:19.402Z,40.03
2018-11-07T20:17:33.545Z,42.40
2018-11-07T20:22:39.363Z,41.30
2018-11-07T20:32:58.650Z,39.42
2018-11-07T20:43:34.948Z,40.50
2018-11-07T20:48:41.807Z,38.73
2018-11-07T20:53:46.782Z,40.88
2018-11-07T20:58:52.188Z,39.65
2018-11-07T21:03:57.378Z,37.50
2018-11-07T21:09:02.000Z,37.13
2018-11-07T21:14:08.208Z,36.90
2018-11-07T21:19:13.170Z,36.40
2018-11-07T21:24:18.014Z,36.80
2018-11-07T21:29:23.452Z,35.57
2018-11-07T21:34:28.210Z,40.83
2018-11-07T21:39:35.148Z,38.87
2018-11-07T21:44:39.999Z,44.90
2018-11-07T21:49:44.676Z,41.07
2018-11-07T21:54:49.145Z,44.83
2018-11-07T21:59:53.931Z,40.53
2018-11-07T22:04:58.377Z,42.43
2018-11-07T22:10:03.360Z,42.80
2018-11-07T22:15:10.188Z,44.70
2018-11-07T22:20:25.885Z,57.03
2018-11-07T22:25:39.772Z,43.87
2018-11-07T22:30:45.152Z,40.97
2018-11-07T22:35:49.712Z,41.43
2018-11-07T22:40:54.780Z,38.40
2018-11-07T22:45:59.346Z,43.97
2018-11-07T22:51:04.451Z,43.33
2018-11-07T22:56:09.134Z,41.77
2018-11-07T23:12:36.152Z,43.67
2018-11-07T23:17:50.991Z,41.70
2018-11-07T23:22:55.907Z,41.40
2018-11-07T23:28:02.925Z,43.40
2018-11-07T23:33:07.609Z,46.03
2018-11-07T23:38:12.459Z,49.87
2018-11-07T23:43:17.095Z,44.40
2018-11-07T23:48:22.462Z,39.93
2018-11-07T23:53:26.932Z,44.07
2018-11-07T23:58:31.232Z,58.10
